createdAt,value
2018-07-26T00:01:38.732Z,57.73
2018-07-26T00:04:07.870Z,58.08
2018-07-26T00:06:37.018Z,58.24
2018-07-26T00:09:09.030Z,58.31
2018-07-26T00:11:38.282Z,58.16
2018-07-26T00:14:07.416Z,56.86
2018-07-26T00:16:36.542Z,57.00
2018-07-26T00:19:05.654Z,58.55
2018-07-26T00:21:34.765Z,58.41
2018-07-26T00:24:03.870Z,59.38
2018-07-26T00:26:32.993Z,59.85
2018-07-26T00:29:02.102Z,59.38
2018-07-26T00:31:31.233Z,58.97
2018-07-26T00:34:00.338Z,58.91
2018-07-26T00:36:29.443Z,58.75
2018-07-26T00:38:58.600Z,59.85
2018-07-26T00:41:27.766Z,59.90
2018-07-26T00:43:56.905Z,58.73
2018-07-26T00:46:26.047Z,59.88
2018-07-26T00:48:55.165Z,60.11
2018-07-26T00:51:24.287Z,59.55
2018-07-26T00:53:53.429Z,59.58
2018-07-26T00:56:22.617Z,58.58
2018-07-26T00:58:51.729Z,59.02
2018-07-26T01:01:20.880Z,60.88
2018-07-26T01:03:49.986Z,61.21
2018-07-26T01:06:19.199Z,60.92
2018-07-26T01:08:48.335Z,61.43
2018-07-26T01:11:17.512Z,60.13
2018-07-26T01:13:46.646Z,59.65
2018-07-26T01:16:15.949Z,59.15
2018-07-26T01:18:45.058Z,59.19
2018-07-26T01:21:14.233Z,60.35
2018-07-26T01:23:43.358Z,60.41
2018-07-26T01:26:12.478Z,61.46
2018-07-26T01:28:41.697Z,60.71
2018-07-26T01:31:11.507Z,60.14
2018-07-26T01:33:40.677Z,60.56
2018-07-26T01:36:09.798Z,60.90
2018-07-26T01:38:38.942Z,61.93
2018-07-26T01:41:08.117Z,60.96
2018-07-26T01:43:50.157Z,60.12
2018-07-26T01:46:21.350Z,60.28
2018-07-26T01:48:50.462Z,62.36
2018-07-26T01:51:19.647Z,60.92
2018-07-26T01:53:48.819Z,61.32
2018-07-26T01:56:17.957Z,59.68
2018-07-26T01:58:47.069Z,60.62
2018-07-26T02:01:16.199Z,60.29
2018-07-26T02:03:45.318Z,60.82
2018-07-26T02:06:14.447Z,61.35
2018-07-26T02:08:43.585Z,62.77
2018-07-26T02:11:12.706Z,62.46
2018-07-26T02:13:41.862Z,62.76
2018-07-26T02:16:11.062Z,62.64
2018-07-26T02:18:40.256Z,62.95
2018-07-26T02:21:09.406Z,64.11
2018-07-26T02:23:38.555Z,63.44
2018-07-26T02:26:07.674Z,63.48
2018-07-26T02:28:36.866Z,64.07
2018-07-26T02:31:06.074Z,64.51
2018-07-26T02:33:35.170Z,64.15
2018-07-26T02:36:04.307Z,63.83
2018-07-26T02:38:33.418Z,62.72
2018-07-26T02:41:02.570Z,64.23
2018-07-26T02:43:31.701Z,63.37
2018-07-26T02:46:00.818Z,63.85
2018-07-26T02:48:29.929Z,64.58
2018-07-26T02:50:59.057Z,63.76
2018-07-26T02:53:28.233Z,64.28
2018-07-26T02:55:57.377Z,63.49
2018-07-26T02:58:26.576Z,64.48
2018-07-26T03:00:55.697Z,63.67
2018-07-26T03:03:24.877Z,63.29
2018-07-26T03:05:53.984Z,64.48
2018-07-26T03:08:23.178Z,64.41
2018-07-26T03:10:52.654Z,63.84
2018-07-26T03:13:21.833Z,64.78
2018-07-26T03:15:50.930Z,64.79
2018-07-26T03:18:20.070Z,65.14
2018-07-26T03:20:49.258Z,64.36
2018-07-26T03:23:18.390Z,64.76
2018-07-26T03:25:47.469Z,63.56
2018-07-26T03:28:16.630Z,63.71
2018-07-26T03:30:45.741Z,63.65
2018-07-26T03:33:14.849Z,64.83
2018-07-26T03:35:44.070Z,65.25
2018-07-26T03:38:13.265Z,65.86
2018-07-26T03:40:42.458Z,64.15
2018-07-26T03:43:11.601Z,63.62
2018-07-26T03:45:40.721Z,65.23
2018-07-26T03:48:09.841Z,63.95
2018-07-26T03:50:38.979Z,63.67
2018-07-26T03:53:08.099Z,64.11
2018-07-26T03:55:37.269Z,63.73
2018-07-26T03:58:13.758Z,64.29
2018-07-26T04:00:42.889Z,64.78
2018-07-26T04:03:12.070Z,64.39
2018-07-26T04:05:41.159Z,63.99
2018-07-26T04:08:10.314Z,64.04
2018-07-26T04:10:39.444Z,64.56
2018-07-26T04:13:08.575Z,64.99
2018-07-26T04:15:37.709Z,64.75
2018-07-26T04:18:07.296Z,63.70
2018-07-26T04:20:36.422Z,63.52
2018-07-26T04:23:05.572Z,64.88
2018-07-26T04:25:34.661Z,64.44
2018-07-26T04:28:03.883Z,63.19
2018-07-26T04:30:33.026Z,63.20
2018-07-26T04:33:02.188Z,63.83
2018-07-26T04:35:31.343Z,64.08
2018-07-26T04:38:00.445Z,63.52
2018-07-26T04:40:29.576Z,63.50
2018-07-26T04:42:58.702Z,64.28
2018-07-26T04:45:27.813Z,64.81
2018-07-26T04:47:56.966Z,64.48
2018-07-26T04:50:26.117Z,65.54
2018-07-26T04:52:55.264Z,65.73
2018-07-26T04:55:24.366Z,65.66
2018-07-26T04:57:53.491Z,65.80
2018-07-26T05:00:22.633Z,65.59
2018-07-26T05:02:51.764Z,64.89
2018-07-26T05:05:20.925Z,64.42
2018-07-26T05:07:50.066Z,63.71
2018-07-26T05:10:19.265Z,64.63
2018-07-26T05:12:48.394Z,64.15
2018-07-26T05:15:17.528Z,63.86
2018-07-26T05:17:46.653Z,64.16
2018-07-26T05:20:15.789Z,63.57
2018-07-26T05:22:44.897Z,64.06
2018-07-26T05:25:14.071Z,62.99
2018-07-26T05:27:43.259Z,63.80
2018-07-26T05:30:12.358Z,62.88
2018-07-26T05:32:41.499Z,63.61
2018-07-26T05:35:10.614Z,64.13
2018-07-26T05:37:39.792Z,62.58
2018-07-26T05:40:08.914Z,62.94
2018-07-26T05:42:38.051Z,63.58
2018-07-26T05:45:07.190Z,63.74
2018-07-26T05:47:36.317Z,63.17
2018-07-26T05:50:05.889Z,62.49
2018-07-26T05:52:35.056Z,64.13
2018-07-26T05:55:04.232Z,63.36
2018-07-26T05:57:33.993Z,63.01
2018-07-26T06:00:03.210Z,62.74
2018-07-26T06:02:34.365Z,63.52
2018-07-26T06:05:03.552Z,63.56
2018-07-26T06:07:32.694Z,62.44
2018-07-26T06:10:01.842Z,63.52
2018-07-26T06:12:30.973Z,63.41
2018-07-26T06:15:00.128Z,64.37
2018-07-26T06:17:29.296Z,63.23
2018-07-26T06:19:58.421Z,63.26
2018-07-26T06:22:50.317Z,63.25
2018-07-26T06:25:19.525Z,62.70
2018-07-26T06:27:48.707Z,62.93
2018-07-26T06:30:17.862Z,62.24
2018-07-26T06:32:47.069Z,62.22
2018-07-26T06:35:16.418Z,61.35
2018-07-26T06:37:46.677Z,60.28
2018-07-26T06:40:15.814Z,60.44
2018-07-26T06:42:46.985Z,60.11
2018-07-26T06:45:16.158Z,59.74
2018-07-26T06:47:45.371Z,59.02
2018-07-26T06:50:14.518Z,58.36
2018-07-26T06:52:43.728Z,56.58
2018-07-26T06:55:12.878Z,58.14
2018-07-26T06:57:42.043Z,56.85
2018-07-26T07:00:11.294Z,55.89
2018-07-26T07:02:40.696Z,56.31
2018-07-26T07:05:26.491Z,56.40
2018-07-26T07:07:55.622Z,55.16
2018-07-26T07:10:24.841Z,54.36
2018-07-26T07:12:54.979Z,53.44
2018-07-26T07:15:24.151Z,53.16
2018-07-26T07:17:53.335Z,51.85
2018-07-26T07:20:22.552Z,52.16
2018-07-26T07:22:51.778Z,53.17
2018-07-26T07:25:20.978Z,52.10
2018-07-26T07:27:50.120Z,51.07
2018-07-26T07:30:19.319Z,49.81
2018-07-26T07:32:48.474Z,49.20
2018-07-26T07:35:17.643Z,48.85
2018-07-26T07:37:46.878Z,48.69
2018-07-26T07:40:15.994Z,48.29
2018-07-26T07:42:45.154Z,47.68
2018-07-26T07:45:14.320Z,48.48
2018-07-26T07:47:43.520Z,46.58
2018-07-26T07:50:12.586Z,47.96
2018-07-26T07:52:41.809Z,45.79
2018-07-26T07:55:10.955Z,46.59
2018-07-26T07:57:40.058Z,45.39
2018-07-26T08:00:09.953Z,44.76
2018-07-26T08:02:39.099Z,44.76
2018-07-26T08:05:08.353Z,43.02
2018-07-26T08:07:37.753Z,44.13
2018-07-26T08:10:08.681Z,43.35
2018-07-26T08:12:37.979Z,43.51
2018-07-26T08:15:07.559Z,41.18
2018-07-26T08:17:36.711Z,42.22
2018-07-26T08:20:06.241Z,42.23
2018-07-26T08:22:35.668Z,40.94
2018-07-26T08:25:05.754Z,39.74
2018-07-26T08:27:35.090Z,39.64
2018-07-26T08:30:05.566Z,39.34
2018-07-26T08:32:34.761Z,40.42
2018-07-26T08:35:03.930Z,39.36
2018-07-26T08:37:33.042Z,37.47
2018-07-26T08:40:02.317Z,37.66
2018-07-26T08:42:31.615Z,36.28
2018-07-26T08:45:00.757Z,37.57
2018-07-26T08:47:29.884Z,36.96
2018-07-26T08:49:59.005Z,36.03
2018-07-26T08:52:28.149Z,34.96
2018-07-26T08:54:57.262Z,35.44
2018-07-26T08:57:26.445Z,33.83
2018-07-26T08:59:55.560Z,34.90
2018-07-26T09:02:24.705Z,33.22
2018-07-26T09:04:53.805Z,32.81
2018-07-26T09:07:22.907Z,32.81
2018-07-26T09:09:52.083Z,32.18
2018-07-26T09:12:21.213Z,31.56
2018-07-26T09:14:50.328Z,30.72
2018-07-26T09:17:19.528Z,30.00
2018-07-26T09:19:48.650Z,29.90
2018-07-26T09:22:17.716Z,28.95
2018-07-26T09:24:46.839Z,28.58
2018-07-26T09:27:15.966Z,27.52
2018-07-26T09:29:45.129Z,27.58
2018-07-26T09:32:14.261Z,27.46
2018-07-26T09:34:43.381Z,27.96
2018-07-26T09:37:12.550Z,28.66
2018-07-26T09:39:41.701Z,26.83
2018-07-26T09:42:10.813Z,27.12
2018-07-26T09:44:39.962Z,26.34
2018-07-26T09:47:09.065Z,26.44
2018-07-26T09:49:38.213Z,26.49
2018-07-26T09:52:07.323Z,25.65
2018-07-26T09:54:36.466Z,25.36
2018-07-26T09:57:05.615Z,25.08
2018-07-26T09:59:34.833Z,23.65
2018-07-26T10:02:03.983Z,24.42
2018-07-26T10:04:33.181Z,24.88
2018-07-26T10:07:02.344Z,24.82
2018-07-26T10:09:31.391Z,24.72
2018-07-26T10:12:00.557Z,24.22
2018-07-26T10:14:29.681Z,24.15
2018-07-26T10:16:58.830Z,24.60
2018-07-26T10:19:28.054Z,24.85
2018-07-26T10:21:57.253Z,24.89
2018-07-26T10:24:26.425Z,24.66
2018-07-26T10:26:55.563Z,25.02
2018-07-26T10:29:24.717Z,25.23
2018-07-26T10:31:53.862Z,25.27
2018-07-26T10:34:23.028Z,25.30
2018-07-26T10:36:52.173Z,25.02
2018-07-26T10:39:21.367Z,24.82
2018-07-26T10:41:50.565Z,25.01
2018-07-26T10:44:19.728Z,24.94
2018-07-26T10:46:48.898Z,24.28
2018-07-26T10:49:18.049Z,24.37
2018-07-26T10:51:47.142Z,24.40
2018-07-26T10:54:16.249Z,24.42
2018-07-26T10:56:45.381Z,24.79
2018-07-26T10:59:14.497Z,25.12
2018-07-26T11:01:43.619Z,24.77
2018-07-26T11:04:12.730Z,25.62
2018-07-26T11:06:41.837Z,25.68
2018-07-26T11:09:11.314Z,25.60
2018-07-26T11:11:40.437Z,25.52
2018-07-26T11:14:09.581Z,26.72
2018-07-26T11:16:39.181Z,26.12
2018-07-26T11:19:08.399Z,25.91
2018-07-26T11:21:37.521Z,26.18
2018-07-26T11:24:06.827Z,25.91
2018-07-26T11:26:35.919Z,26.41
2018-07-26T11:29:05.069Z,24.94
2018-07-26T11:31:34.206Z,25.34
2018-07-26T11:34:03.690Z,26.41
2018-07-26T11:36:32.837Z,26.18
2018-07-26T11:39:02.109Z,27.08
2018-07-26T11:41:31.313Z,27.23
2018-07-26T11:44:00.397Z,27.86
2018-07-26T11:46:29.520Z,26.67
2018-07-26T11:48:58.637Z,26.53
2018-07-26T11:51:27.809Z,25.90
2018-07-26T11:53:56.937Z,25.91
2018-07-26T11:56:26.100Z,25.34
2018-07-26T11:58:55.202Z,24.23
2018-07-26T12:01:24.369Z,24.20
2018-07-26T12:03:53.542Z,24.41
2018-07-26T12:06:22.743Z,24.03
2018-07-26T12:08:51.891Z,24.50
2018-07-26T12:11:21.058Z,24.29
2018-07-26T12:13:50.218Z,24.18
2018-07-26T12:16:19.467Z,22.95
2018-07-26T12:18:48.629Z,23.57
2018-07-26T12:21:17.829Z,23.44
2018-07-26T12:23:46.969Z,24.60
2018-07-26T12:26:16.073Z,23.46
2018-07-26T12:28:45.213Z,23.38
2018-07-26T12:31:14.378Z,23.48
2018-07-26T12:33:43.535Z,23.70
2018-07-26T12:36:13.211Z,24.10
2018-07-26T12:38:42.430Z,23.64
2018-07-26T12:41:11.587Z,23.30
2018-07-26T12:43:40.799Z,22.42
2018-07-26T12:46:09.945Z,23.41
2018-07-26T12:48:39.509Z,23.61
2018-07-26T12:51:08.661Z,22.09
2018-07-26T12:53:37.829Z,22.34
2018-07-26T12:56:07.010Z,21.64
2018-07-26T12:58:36.199Z,21.10
2018-07-26T13:01:05.346Z,21.64
2018-07-26T13:03:34.482Z,20.84
2018-07-26T13:06:03.656Z,20.91
2018-07-26T13:08:32.745Z,21.26
2018-07-26T13:11:01.906Z,21.54
2018-07-26T13:13:31.014Z,22.48
2018-07-26T13:16:00.177Z,22.94
2018-07-26T13:18:29.310Z,22.41
2018-07-26T13:20:58.452Z,22.84
2018-07-26T13:23:27.629Z,22.77
2018-07-26T13:25:56.769Z,23.59
2018-07-26T13:28:25.921Z,24.27
2018-07-26T13:30:55.225Z,25.45
2018-07-26T13:33:24.445Z,24.50
2018-07-26T13:35:58.610Z,25.06
2018-07-26T13:38:27.776Z,25.54
2018-07-26T13:40:57.162Z,25.03
2018-07-26T13:43:27.348Z,23.93
2018-07-26T13:45:56.574Z,24.17
2018-07-26T13:48:28.594Z,24.79
2018-07-26T13:50:57.935Z,26.08
2018-07-26T13:53:27.286Z,26.30
2018-07-26T13:55:56.651Z,25.52
2018-07-26T13:58:26.013Z,25.51
2018-07-26T14:00:55.250Z,25.93
2018-07-26T14:03:24.461Z,27.38
2018-07-26T14:05:53.722Z,27.22
2018-07-26T14:08:22.925Z,24.76
2018-07-26T14:10:52.077Z,28.19
2018-07-26T14:13:21.285Z,26.97
2018-07-26T14:15:50.498Z,27.71
2018-07-26T14:18:19.553Z,29.48
2018-07-26T14:20:49.714Z,28.35
2018-07-26T14:23:30.166Z,28.18
2018-07-26T14:25:59.299Z,28.45
2018-07-26T14:28:28.734Z,28.39
2018-07-26T14:30:57.957Z,27.32
2018-07-26T14:33:27.153Z,28.04
2018-07-26T14:35:56.328Z,27.16
2018-07-26T14:38:25.454Z,27.53
2018-07-26T14:40:54.759Z,27.57
2018-07-26T14:43:23.981Z,28.53
2018-07-26T14:45:53.138Z,25.62
2018-07-26T14:48:22.737Z,26.90
2018-07-26T14:50:51.946Z,24.62
2018-07-26T14:53:21.225Z,24.76
2018-07-26T14:55:50.675Z,24.60
2018-07-26T14:58:20.595Z,22.28
2018-07-26T15:00:50.014Z,24.30
2018-07-26T15:03:19.578Z,24.22
2018-07-26T15:05:49.001Z,26.23
2018-07-26T15:08:19.746Z,24.38
2018-07-26T15:10:49.390Z,24.01
2018-07-26T15:13:18.730Z,23.89
2018-07-26T15:15:47.969Z,22.91
2018-07-26T15:18:17.121Z,25.48
2018-07-26T15:20:46.309Z,24.60
2018-07-26T15:23:16.728Z,25.23
2018-07-26T15:25:46.906Z,23.39
2018-07-26T15:28:16.161Z,22.36
2018-07-26T15:30:45.315Z,22.24
2018-07-26T15:33:14.445Z,20.69
2018-07-26T15:35:45.733Z,21.62
2018-07-26T15:38:14.901Z,20.67
2018-07-26T15:40:44.033Z,21.07
2018-07-26T15:43:13.170Z,20.14
2018-07-26T15:45:42.350Z,20.07
2018-07-26T15:48:11.663Z,19.55
2018-07-26T15:50:41.026Z,20.15
2018-07-26T15:53:10.463Z,19.76
2018-07-26T15:55:40.134Z,20.21
2018-07-26T15:58:09.767Z,20.04
2018-07-26T16:00:39.542Z,20.07
2018-07-26T16:03:09.431Z,20.36
2018-07-26T16:05:39.189Z,20.81
2018-07-26T16:08:09.191Z,20.23
2018-07-26T16:10:38.867Z,20.38
2018-07-26T16:13:08.574Z,20.09
2018-07-26T16:15:40.997Z,20.61
2018-07-26T16:18:10.374Z,20.43
2018-07-26T16:20:39.879Z,20.67
2018-07-26T16:23:10.839Z,20.25
2018-07-26T16:25:42.922Z,20.64
2018-07-26T16:28:12.237Z,20.00
2018-07-26T16:30:41.577Z,21.19
2018-07-26T16:33:10.945Z,21.75
2018-07-26T16:35:40.216Z,23.90
2018-07-26T16:38:09.864Z,22.74
2018-07-26T16:40:39.260Z,22.32
2018-07-26T16:43:09.163Z,21.73
2018-07-26T16:45:38.694Z,24.10
2018-07-26T16:48:08.466Z,24.21
2018-07-26T16:50:38.506Z,22.96
2018-07-26T16:53:08.012Z,22.79
2018-07-26T16:55:37.631Z,23.37
2018-07-26T16:58:07.070Z,27.91
2018-07-26T17:00:37.121Z,28.65
2018-07-26T17:03:06.526Z,28.21
2018-07-26T17:05:35.813Z,29.17
2018-07-26T17:08:05.891Z,29.08
2018-07-26T17:10:35.440Z,29.09
2018-07-26T17:13:04.626Z,29.06
2018-07-26T17:15:33.848Z,30.54
2018-07-26T17:18:03.014Z,29.87
2018-07-26T17:20:32.186Z,30.04
2018-07-26T17:23:01.349Z,30.70
2018-07-26T17:25:30.521Z,31.31
2018-07-26T17:27:59.673Z,31.88
2018-07-26T17:30:28.861Z,31.20
2018-07-26T17:32:58.033Z,30.59
2018-07-26T17:35:27.293Z,30.62
2018-07-26T17:37:56.495Z,31.10
2018-07-26T17:40:25.766Z,32.85
2018-07-26T17:42:54.942Z,32.92
2018-07-26T17:45:24.091Z,31.58
2018-07-26T17:47:53.265Z,31.83
2018-07-26T17:50:22.446Z,31.50
2018-07-26T17:52:51.485Z,32.27
2018-07-26T17:55:21.668Z,32.20
2018-07-26T17:57:50.789Z,32.58
2018-07-26T18:00:19.912Z,34.58
2018-07-26T18:02:49.035Z,34.32
2018-07-26T18:05:18.456Z,34.80
2018-07-26T18:07:47.569Z,32.48
2018-07-26T18:10:16.685Z,33.07
2018-07-26T18:12:45.802Z,33.44
2018-07-26T18:15:15.060Z,34.34
2018-07-26T18:17:44.193Z,32.89
2018-07-26T18:20:13.289Z,33.91
2018-07-26T18:22:42.421Z,34.85
2018-07-26T18:25:11.597Z,35.05
2018-07-26T18:27:40.781Z,35.16
2018-07-26T18:30:11.980Z,34.34
2018-07-26T18:32:41.169Z,34.63
2018-07-26T18:35:10.378Z,35.13
2018-07-26T18:37:39.623Z,35.87
2018-07-26T18:40:08.841Z,36.94
2018-07-26T18:42:38.270Z,37.52
2018-07-26T18:45:08.735Z,37.48
2018-07-26T18:47:38.299Z,38.49
2018-07-26T18:50:08.849Z,38.96
2018-07-26T18:52:38.261Z,40.34
2018-07-26T18:55:09.145Z,40.66
2018-07-26T18:57:38.933Z,39.32
2018-07-26T19:00:09.890Z,39.33
2018-07-26T19:02:39.075Z,40.27
2018-07-26T19:05:09.206Z,40.69
2018-07-26T19:07:38.582Z,39.69
2018-07-26T19:10:09.589Z,40.90
2018-07-26T19:12:39.327Z,40.89
2018-07-26T19:15:10.979Z,39.88
2018-07-26T19:17:40.172Z,39.94
2018-07-26T19:20:10.961Z,39.96
2018-07-26T19:22:41.442Z,40.43
2018-07-26T19:25:11.913Z,40.99
2018-07-26T19:27:41.808Z,39.93
2018-07-26T19:30:13.677Z,40.02
2018-07-26T19:32:44.295Z,40.74
2018-07-26T19:35:13.847Z,40.99
2018-07-26T19:37:43.050Z,41.48
2018-07-26T19:40:12.774Z,43.12
2018-07-26T19:42:42.226Z,43.72
2018-07-26T19:45:12.745Z,42.61
2018-07-26T19:47:44.180Z,41.61
2018-07-26T19:50:13.653Z,44.39
2018-07-26T19:52:45.005Z,42.91
2018-07-26T19:55:16.137Z,43.03
2018-07-26T19:57:46.771Z,43.53
2018-07-26T20:00:17.260Z,43.95
2018-07-26T20:02:48.203Z,43.31
2018-07-26T20:05:17.918Z,44.02
2018-07-26T20:07:47.897Z,42.70
2018-07-26T20:10:17.531Z,43.01
2018-07-26T20:12:48.821Z,43.21
2018-07-26T20:15:19.742Z,43.87
2018-07-26T20:17:49.962Z,44.41
2018-07-26T20:20:21.252Z,44.16
2018-07-26T20:22:52.033Z,45.06
2018-07-26T20:25:22.212Z,45.03
2018-07-26T20:27:53.468Z,44.50
2018-07-26T20:30:24.322Z,45.32
2018-07-26T20:32:55.702Z,45.26
2018-07-26T20:35:26.889Z,45.07
2018-07-26T20:37:58.043Z,45.47
2018-07-26T20:40:29.039Z,45.39
2018-07-26T20:42:58.314Z,45.00
2018-07-26T20:45:28.774Z,46.78
2018-07-26T20:48:00.233Z,46.99
2018-07-26T20:50:31.467Z,48.27
2018-07-26T20:53:02.731Z,47.22
2018-07-26T20:55:33.325Z,47.66
2018-07-26T20:58:03.923Z,47.05
2018-07-26T21:00:36.211Z,46.60
2018-07-26T21:03:07.252Z,48.17
2018-07-26T21:05:37.373Z,46.50
2018-07-26T21:08:08.420Z,47.94
2018-07-26T21:10:39.918Z,47.81
2018-07-26T21:13:10.173Z,47.72
2018-07-26T21:15:41.154Z,48.17
2018-07-26T21:18:12.318Z,48.67
2018-07-26T21:20:44.413Z,48.25
2018-07-26T21:23:14.057Z,49.21
2018-07-26T21:25:46.431Z,49.27
2018-07-26T21:28:16.856Z,49.11
2018-07-26T21:30:46.053Z,49.07
2018-07-26T21:33:15.490Z,49.95
2018-07-26T21:35:44.749Z,48.97
2018-07-26T21:38:13.862Z,49.60
2018-07-26T21:40:42.995Z,49.98
2018-07-26T21:43:12.861Z,50.43
2018-07-26T21:45:41.957Z,49.27
2018-07-26T21:48:11.077Z,49.80
2018-07-26T21:50:40.173Z,50.34
2018-07-26T21:53:09.324Z,50.34
2018-07-26T21:55:38.481Z,51.28
2018-07-26T21:58:07.837Z,51.25
2018-07-26T22:00:42.350Z,50.43
2018-07-26T22:03:11.661Z,51.26
2018-07-26T22:05:40.837Z,51.92
2018-07-26T22:08:09.933Z,50.46
2018-07-26T22:10:39.042Z,52.40
2018-07-26T22:13:08.214Z,51.81
2018-07-26T22:15:37.330Z,51.36
2018-07-26T22:18:06.545Z,51.52
2018-07-26T22:20:35.643Z,51.78
2018-07-26T22:23:04.835Z,52.15
2018-07-26T22:25:34.033Z,51.67
2018-07-26T22:28:03.237Z,51.83
2018-07-26T22:30:32.373Z,51.86
2018-07-26T22:33:01.649Z,52.28
2018-07-26T22:35:30.838Z,52.59
2018-07-26T22:38:05.701Z,52.74
2018-07-26T22:40:34.832Z,53.29
2018-07-26T22:43:04.139Z,53.52
2018-07-26T22:45:33.281Z,53.93
2018-07-26T22:48:02.555Z,53.50
2018-07-26T22:50:31.850Z,53.56
2018-07-26T22:53:01.093Z,54.13
2018-07-26T22:55:30.251Z,54.17
2018-07-26T22:57:59.766Z,53.75
2018-07-26T23:00:29.178Z,54.03
2018-07-26T23:02:58.575Z,53.43
2018-07-26T23:05:27.711Z,53.08
2018-07-26T23:07:56.856Z,54.43
2018-07-26T23:10:25.990Z,53.92
2018-07-26T23:12:55.105Z,54.91
2018-07-26T23:15:24.274Z,54.20
2018-07-26T23:17:53.382Z,53.52
2018-07-26T23:20:22.574Z,53.49
2018-07-26T23:22:52.494Z,55.06
2018-07-26T23:25:21.641Z,54.25
2018-07-26T23:27:50.734Z,52.88
2018-07-26T23:30:19.871Z,53.41
2018-07-26T23:32:48.977Z,54.42
2018-07-26T23:35:18.113Z,54.01
2018-07-26T23:37:47.241Z,53.32
2018-07-26T23:40:16.365Z,53.52
2018-07-26T23:42:45.515Z,54.19
2018-07-26T23:45:14.662Z,53.79
2018-07-26T23:47:43.770Z,54.18
2018-07-26T23:50:12.985Z,53.89
2018-07-26T23:52:42.106Z,54.99
2018-07-26T23:55:11.217Z,55.05
2018-07-26T23:57:40.337Z,55.55
